createdAt,value
2022-07-31T00:00:16.822Z,2.90
2022-07-31T00:02:43.469Z,2.90
2022-07-31T00:05:11.067Z,2.80
2022-07-31T00:07:37.675Z,3.10
2022-07-31T00:10:05.514Z,3.20
2022-07-31T00:12:32.497Z,3.40
2022-07-31T00:14:59.000Z,3.20
2022-07-31T00:17:25.686Z,5.00
2022-07-31T00:19:52.412Z,5.00
2022-07-31T00:22:19.107Z,5.20
2022-07-31T00:24:45.815Z,4.90
2022-07-31T00:27:12.695Z,4.60
2022-07-31T00:29:39.855Z,4.70
2022-07-31T00:32:06.762Z,4.70
2022-07-31T00:34:33.642Z,4.60
2022-07-31T00:37:00.466Z,4.30
2022-07-31T00:39:27.541Z,5.10
2022-07-31T00:41:54.368Z,4.90
2022-07-31T00:44:21.005Z,3.70
2022-07-31T00:46:48.056Z,3.40
2022-07-31T00:49:16.102Z,3.00
2022-07-31T00:51:42.875Z,3.40
2022-07-31T00:54:10.203Z,2.80
2022-07-31T00:56:49.165Z,4.00
2022-07-31T00:59:15.737Z,3.40
2022-07-31T01:01:42.348Z,3.10
2022-07-31T01:04:09.097Z,2.90
2022-07-31T01:06:42.849Z,3.30
2022-07-31T01:09:09.509Z,3.20
2022-07-31T01:11:44.893Z,3.10
2022-07-31T01:14:12.849Z,2.80
2022-07-31T01:16:44.834Z,2.60
2022-07-31T01:19:43.328Z,2.50
2022-07-31T01:22:35.347Z,2.40
2022-07-31T01:25:40.712Z,2.60
2022-07-31T01:28:10.360Z,2.80
2022-07-31T01:30:43.526Z,3.00
2022-07-31T01:33:14.814Z,3.00
2022-07-31T01:35:45.786Z,3.50
2022-07-31T01:38:16.134Z,3.20
2022-07-31T01:40:47.508Z,3.10
2022-07-31T01:43:25.926Z,2.90
2022-07-31T01:45:58.214Z,2.90
2022-07-31T01:48:26.790Z,3.20
2022-07-31T01:50:58.335Z,3.20
2022-07-31T01:53:26.629Z,3.30
2022-07-31T01:56:01.872Z,3.70
2022-07-31T01:58:35.298Z,3.70
2022-07-31T02:01:04.682Z,3.30
2022-07-31T02:03:44.389Z,3.80
2022-07-31T02:06:18.184Z,4.00
2022-07-31T02:08:50.828Z,4.00
2022-07-31T02:11:20.191Z,4.30
2022-07-31T02:13:48.271Z,4.40
2022-07-31T02:16:17.427Z,3.90
2022-07-31T02:18:44.153Z,3.90
2022-07-31T02:21:10.897Z,3.30
2022-07-31T02:23:38.415Z,4.50
2022-07-31T02:26:06.841Z,4.90
2022-07-31T02:28:36.970Z,6.80
2022-07-31T02:31:05.148Z,5.00
2022-07-31T02:33:32.854Z,5.20
2022-07-31T02:36:00.664Z,4.60
2022-07-31T02:38:28.452Z,5.30
2022-07-31T02:41:01.581Z,4.90
2022-07-31T02:43:30.589Z,5.70
2022-07-31T02:45:58.488Z,5.00
2022-07-31T02:48:25.673Z,5.60
2022-07-31T02:50:53.342Z,6.40
2022-07-31T02:53:20.872Z,6.40
2022-07-31T02:55:48.062Z,6.20
2022-07-31T02:58:14.613Z,6.20
2022-07-31T03:00:41.642Z,7.40
2022-07-31T03:03:08.433Z,7.30
2022-07-31T03:05:35.350Z,7.00
2022-07-31T03:08:01.874Z,7.40
2022-07-31T03:10:28.571Z,7.00
2022-07-31T03:12:56.304Z,7.20
2022-07-31T03:15:25.691Z,7.20
2022-07-31T03:17:54.535Z,7.20
2022-07-31T03:20:21.866Z,6.10
2022-07-31T03:22:48.904Z,6.30
2022-07-31T03:25:21.163Z,6.00
2022-07-31T03:27:55.053Z,5.90
2022-07-31T03:30:24.539Z,6.30
2022-07-31T03:32:52.212Z,6.50
2022-07-31T03:35:19.646Z,6.70
2022-07-31T03:37:46.519Z,6.60
2022-07-31T03:40:13.782Z,7.00
2022-07-31T03:42:40.869Z,6.10
2022-07-31T03:45:09.706Z,6.50
2022-07-31T03:47:37.058Z,6.70
2022-07-31T03:50:05.780Z,7.10
2022-07-31T03:52:32.513Z,7.50
2022-07-31T03:54:59.645Z,7.90
2022-07-31T03:57:31.058Z,8.80
2022-07-31T04:00:00.929Z,8.70
2022-07-31T04:02:28.576Z,9.40
2022-07-31T04:04:55.639Z,8.70
2022-07-31T04:07:22.289Z,8.90
2022-07-31T04:09:48.961Z,7.20
2022-07-31T04:12:15.887Z,7.90
2022-07-31T04:14:42.473Z,6.40
2022-07-31T04:17:09.271Z,6.60
2022-07-31T04:19:36.260Z,6.50
2022-07-31T04:22:03.462Z,6.60
2022-07-31T04:24:30.393Z,6.10
2022-07-31T04:26:58.091Z,5.40
2022-07-31T04:29:25.449Z,6.60
2022-07-31T04:31:52.093Z,6.20
2022-07-31T04:34:18.587Z,6.10
2022-07-31T04:36:45.278Z,6.00
2022-07-31T04:39:11.817Z,6.20
2022-07-31T04:41:38.338Z,6.30
2022-07-31T04:44:05.306Z,6.20
2022-07-31T04:46:31.788Z,6.30
2022-07-31T04:48:58.726Z,5.40
2022-07-31T04:51:25.481Z,5.60
2022-07-31T04:53:52.296Z,5.30
2022-07-31T04:56:19.854Z,6.10
2022-07-31T04:58:46.617Z,6.10
2022-07-31T05:01:13.190Z,6.00
2022-07-31T05:03:43.071Z,6.10
2022-07-31T05:06:11.491Z,6.10
2022-07-31T05:08:39.483Z,5.10
2022-07-31T05:11:07.174Z,6.20
2022-07-31T05:13:33.831Z,6.90
2022-07-31T05:16:00.401Z,6.60
2022-07-31T05:18:26.941Z,6.40
2022-07-31T05:20:53.658Z,6.60
2022-07-31T05:23:20.405Z,6.40
2022-07-31T05:25:47.046Z,6.90
2022-07-31T05:28:13.565Z,7.20
2022-07-31T05:30:40.123Z,6.60
2022-07-31T05:33:07.017Z,6.80
2022-07-31T05:35:33.627Z,7.40
2022-07-31T05:38:00.182Z,7.70
2022-07-31T05:40:26.900Z,6.90
2022-07-31T05:42:53.685Z,5.80
2022-07-31T05:45:20.401Z,4.90
2022-07-31T05:47:47.038Z,4.70
2022-07-31T05:50:13.664Z,4.60
2022-07-31T05:52:40.323Z,4.30
2022-07-31T05:55:07.457Z,4.20
2022-07-31T05:57:34.757Z,4.20
2022-07-31T06:00:02.012Z,3.60
2022-07-31T06:02:30.686Z,3.90
2022-07-31T06:04:57.474Z,4.10
2022-07-31T06:07:24.174Z,3.50
2022-07-31T06:09:50.955Z,4.00
2022-07-31T06:12:18.887Z,3.90
2022-07-31T06:14:45.975Z,3.70
2022-07-31T06:17:12.516Z,3.60
2022-07-31T06:19:39.053Z,3.50
2022-07-31T06:22:06.074Z,3.50
2022-07-31T06:24:33.539Z,3.40
2022-07-31T06:27:01.931Z,3.00
2022-07-31T06:29:41.935Z,3.60
2022-07-31T06:32:09.285Z,3.80
2022-07-31T06:34:35.812Z,3.10
2022-07-31T06:37:02.514Z,3.20
2022-07-31T06:39:55.277Z,3.40
2022-07-31T06:42:26.314Z,3.10
2022-07-31T06:44:54.080Z,4.90
2022-07-31T06:47:23.524Z,5.40
2022-07-31T06:49:50.758Z,0.80
2022-07-31T06:52:18.727Z,0.60
2022-07-31T06:54:46.118Z,0.70
2022-07-31T06:57:12.829Z,0.70
2022-07-31T06:59:41.558Z,0.70
2022-07-31T07:02:08.683Z,0.60
2022-07-31T07:04:56.540Z,0.60
2022-07-31T07:07:22.751Z,0.80
2022-07-31T07:09:49.423Z,0.70
2022-07-31T07:12:16.754Z,0.60
2022-07-31T07:14:44.651Z,0.50
2022-07-31T07:17:11.264Z,0.50
2022-07-31T07:19:40.645Z,0.50
2022-07-31T07:22:07.644Z,0.50
2022-07-31T07:24:34.496Z,0.60
2022-07-31T07:27:01.009Z,0.70
2022-07-31T07:29:27.857Z,0.70
2022-07-31T07:31:54.383Z,0.50
2022-07-31T07:34:21.062Z,0.70
2022-07-31T07:36:47.674Z,0.80
2022-07-31T07:39:14.283Z,0.70
2022-07-31T07:41:40.960Z,0.60
2022-07-31T07:44:07.699Z,0.40
2022-07-31T07:46:34.549Z,0.50
2022-07-31T07:49:02.892Z,0.60
2022-07-31T07:51:29.776Z,0.70
2022-07-31T07:53:56.418Z,0.60
2022-07-31T07:56:23.161Z,0.70
2022-07-31T07:58:50.417Z,0.50
2022-07-31T08:01:17.302Z,0.60
2022-07-31T08:03:50.126Z,0.40
2022-07-31T08:06:20.244Z,0.60
2022-07-31T08:08:46.844Z,0.50
2022-07-31T08:11:17.608Z,0.40
2022-07-31T08:13:50.699Z,0.40
2022-07-31T08:16:21.823Z,0.50
2022-07-31T08:18:49.692Z,0.40
2022-07-31T08:21:16.403Z,0.40
2022-07-31T08:23:43.060Z,0.40
2022-07-31T08:26:09.737Z,0.30
2022-07-31T08:28:37.366Z,0.30
2022-07-31T08:31:03.983Z,0.30
2022-07-31T08:33:30.678Z,0.30
2022-07-31T08:35:57.335Z,0.30
2022-07-31T08:38:23.861Z,0.20
2022-07-31T08:40:50.487Z,0.20
2022-07-31T08:44:01.471Z,0.30
2022-07-31T08:46:05.189Z,0.20
2022-07-31T08:48:33.046Z,0.20
2022-07-31T08:51:03.061Z,0.20
2022-07-31T08:53:31.346Z,0.10
2022-07-31T08:55:58.072Z,0.20
2022-07-31T08:58:24.973Z,0.20
2022-07-31T09:00:51.899Z,0.20
2022-07-31T09:03:19.178Z,0.20
2022-07-31T09:05:45.795Z,0.30
2022-07-31T09:08:14.965Z,0.30
2022-07-31T09:10:49.111Z,0.30
2022-07-31T09:13:18.167Z,0.30
2022-07-31T09:15:45.887Z,0.30
2022-07-31T09:18:31.355Z,0.40
2022-07-31T09:21:03.935Z,0.40
2022-07-31T09:23:31.193Z,0.40
2022-07-31T09:26:05.868Z,0.40
2022-07-31T09:28:37.923Z,0.30
2022-07-31T09:31:07.414Z,0.50
2022-07-31T09:33:34.676Z,0.30
2022-07-31T09:36:01.169Z,0.20
2022-07-31T09:38:36.565Z,0.30
2022-07-31T09:41:56.546Z,0.20
2022-07-31T09:44:10.114Z,0.40
2022-07-31T09:46:45.510Z,0.30
2022-07-31T09:49:12.606Z,0.20
2022-07-31T09:51:40.978Z,0.20
2022-07-31T09:54:07.823Z,0.30
2022-07-31T09:56:35.889Z,0.30
2022-07-31T09:59:02.675Z,0.30
2022-07-31T10:01:33.354Z,0.30
2022-07-31T10:04:01.669Z,0.10
2022-07-31T10:06:32.050Z,0.30
2022-07-31T10:09:02.242Z,0.20
2022-07-31T10:11:30.382Z,0.20
2022-07-31T10:14:00.808Z,0.20
2022-07-31T10:16:32.366Z,0.50
2022-07-31T10:19:01.308Z,0.20
2022-07-31T10:21:41.661Z,0.20
2022-07-31T10:24:10.952Z,0.30
2022-07-31T10:29:26.466Z,0.30
2022-07-31T10:31:53.555Z,0.30
2022-07-31T10:34:22.238Z,0.30
2022-07-31T10:36:52.192Z,0.30
2022-07-31T10:39:31.072Z,0.30
2022-07-31T10:42:13.916Z,0.20
2022-07-31T10:44:46.869Z,0.20
2022-07-31T10:47:14.870Z,0.30
2022-07-31T10:49:46.708Z,0.60
2022-07-31T10:52:13.760Z,0.30
2022-07-31T10:54:46.471Z,0.30
2022-07-31T10:57:33.677Z,0.20
2022-07-31T11:00:11.772Z,0.20
2022-07-31T11:02:38.932Z,0.20
2022-07-31T11:05:16.129Z,0.20
2022-07-31T11:07:45.637Z,0.30
2022-07-31T11:10:21.645Z,0.20
2022-07-31T11:13:08.965Z,0.30
2022-07-31T11:15:35.778Z,0.20
2022-07-31T11:18:23.679Z,0.20
2022-07-31T11:21:17.364Z,0.30
2022-07-31T11:23:57.779Z,0.30
2022-07-31T11:26:33.632Z,0.30
2022-07-31T11:30:00.871Z,0.50
2022-07-31T11:31:55.370Z,0.40
2022-07-31T11:34:22.017Z,0.50
2022-07-31T11:36:51.458Z,0.40
2022-07-31T11:39:18.648Z,0.50
2022-07-31T11:41:50.442Z,0.40
2022-07-31T11:44:21.916Z,0.40
2022-07-31T11:46:50.603Z,0.60
2022-07-31T11:49:48.053Z,0.50
2022-07-31T11:52:30.969Z,0.60
2022-07-31T11:55:09.718Z,0.50
2022-07-31T11:57:51.541Z,0.70
2022-07-31T12:00:26.471Z,0.50
2022-07-31T12:02:56.841Z,0.50
2022-07-31T12:05:36.136Z,0.80
2022-07-31T12:08:07.063Z,0.50
2022-07-31T12:10:34.629Z,0.60
2022-07-31T12:13:02.508Z,0.70
2022-07-31T12:15:29.461Z,0.60
2022-07-31T12:18:05.753Z,0.60
2022-07-31T12:20:36.556Z,0.90
2022-07-31T12:23:05.799Z,1.10
2022-07-31T12:25:43.581Z,0.90
2022-07-31T12:28:13.186Z,0.80
2022-07-31T12:30:39.885Z,0.40
2022-07-31T12:33:08.504Z,1.40
2022-07-31T12:35:37.222Z,0.50
2022-07-31T12:38:40.708Z,0.40
2022-07-31T12:41:08.595Z,0.30
2022-07-31T12:43:37.711Z,0.40
2022-07-31T12:46:04.545Z,0.30
2022-07-31T12:48:37.971Z,0.60
2022-07-31T12:51:06.128Z,0.40
2022-07-31T12:53:32.868Z,0.30
2022-07-31T12:55:59.619Z,0.30
2022-07-31T12:58:26.359Z,0.40
2022-07-31T13:00:53.108Z,0.30
2022-07-31T13:03:19.750Z,0.20
2022-07-31T13:05:50.347Z,0.30
2022-07-31T13:08:18.667Z,0.30
2022-07-31T13:10:45.443Z,0.30
2022-07-31T13:13:11.950Z,0.40
2022-07-31T13:15:38.596Z,0.30
2022-07-31T13:18:05.358Z,0.20
2022-07-31T13:20:32.215Z,0.20
2022-07-31T13:22:59.450Z,0.20
2022-07-31T13:25:28.561Z,0.20
2022-07-31T13:27:55.189Z,0.30
2022-07-31T13:30:21.738Z,0.20
2022-07-31T13:32:48.473Z,0.20
2022-07-31T13:35:24.283Z,0.30
2022-07-31T13:37:55.999Z,0.20
2022-07-31T13:40:22.850Z,0.40
2022-07-31T13:42:49.701Z,0.20
2022-07-31T13:45:16.301Z,0.30
2022-07-31T13:47:50.392Z,0.20
2022-07-31T13:50:19.663Z,0.20
2022-07-31T13:52:46.507Z,0.20
2022-07-31T13:55:13.190Z,0.20
2022-07-31T13:57:39.921Z,0.20
2022-07-31T14:00:07.233Z,0.20
2022-07-31T14:02:33.983Z,0.30
2022-07-31T14:05:00.646Z,0.20
2022-07-31T14:07:48.178Z,0.20
2022-07-31T14:10:19.937Z,0.10
2022-07-31T14:12:47.294Z,0.50
2022-07-31T14:15:13.952Z,0.20
2022-07-31T14:17:40.797Z,0.90
2022-07-31T14:20:08.084Z,0.50
2022-07-31T14:22:34.701Z,0.30
2022-07-31T14:25:01.263Z,0.20
2022-07-31T14:27:27.919Z,0.20
2022-07-31T14:29:54.581Z,0.50
2022-07-31T14:32:21.384Z,0.20
2022-07-31T14:34:49.735Z,0.20
2022-07-31T14:37:16.692Z,0.20
2022-07-31T14:39:43.566Z,0.20
2022-07-31T14:42:10.923Z,0.10
2022-07-31T14:44:37.568Z,0.20
2022-07-31T14:47:04.509Z,0.20
2022-07-31T14:50:09.552Z,0.20
2022-07-31T14:52:19.106Z,0.40
2022-07-31T14:54:45.681Z,0.30
2022-07-31T14:57:12.498Z,0.20
2022-07-31T14:59:46.781Z,0.30
2022-07-31T15:02:13.568Z,0.30
2022-07-31T15:04:40.137Z,0.20
2022-07-31T15:07:33.784Z,0.20
2022-07-31T15:09:53.561Z,0.10
2022-07-31T15:12:20.202Z,0.20
2022-07-31T15:14:46.845Z,0.20
2022-07-31T15:17:13.430Z,0.20
2022-07-31T15:19:40.111Z,0.20
2022-07-31T15:22:10.161Z,0.10
2022-07-31T15:24:48.438Z,0.20
2022-07-31T15:27:17.025Z,0.10
2022-07-31T15:30:03.551Z,0.20
2022-07-31T15:32:30.208Z,0.20
2022-07-31T15:34:56.855Z,0.20
2022-07-31T15:37:23.596Z,0.20
2022-07-31T15:40:02.881Z,0.30
2022-07-31T15:42:35.011Z,0.20
2022-07-31T15:45:01.538Z,0.20
2022-07-31T15:47:28.198Z,0.30
2022-07-31T15:49:55.153Z,0.30
2022-07-31T15:52:21.725Z,0.20
2022-07-31T15:54:51.956Z,0.20
2022-07-31T15:57:22.871Z,0.20
2022-07-31T15:59:50.822Z,0.30
2022-07-31T16:02:17.796Z,0.20
2022-07-31T16:04:52.309Z,0.40
2022-07-31T16:08:28.732Z,0.20
2022-07-31T16:10:18.003Z,0.70
2022-07-31T16:12:48.645Z,0.60
2022-07-31T16:15:16.906Z,0.30
2022-07-31T16:17:44.725Z,0.60
2022-07-31T16:20:20.863Z,0.60
2022-07-31T16:22:59.873Z,0.90
2022-07-31T16:25:27.515Z,2.00
2022-07-31T16:27:54.810Z,2.00
2022-07-31T16:30:22.330Z,1.70
2022-07-31T16:32:50.135Z,1.60
2022-07-31T16:35:16.811Z,1.70
2022-07-31T16:37:51.679Z,1.90
2022-07-31T16:40:29.765Z,1.30
2022-07-31T16:43:49.365Z,1.60
2022-07-31T16:45:53.308Z,0.70
2022-07-31T16:48:19.959Z,0.90
2022-07-31T16:50:52.920Z,1.00
2022-07-31T16:54:10.533Z,0.80
2022-07-31T16:56:14.360Z,0.90
2022-07-31T16:58:41.315Z,0.80
2022-07-31T17:01:57.186Z,0.70
2022-07-31T17:04:00.262Z,0.60
2022-07-31T17:06:35.959Z,0.90
2022-07-31T17:09:16.531Z,1.00
2022-07-31T17:11:50.154Z,1.00
2022-07-31T17:14:18.946Z,1.30
2022-07-31T17:16:48.372Z,1.30
2022-07-31T17:19:41.392Z,2.00
2022-07-31T17:22:08.066Z,1.60
2022-07-31T17:24:36.677Z,1.50
2022-07-31T17:27:05.457Z,2.10
2022-07-31T17:29:32.293Z,1.90
2022-07-31T17:31:59.088Z,1.90
2022-07-31T17:34:25.694Z,2.60
2022-07-31T17:36:52.353Z,1.60
2022-07-31T17:39:19.165Z,2.00
2022-07-31T17:41:47.741Z,2.10
2022-07-31T17:44:14.497Z,2.00
2022-07-31T17:46:48.026Z,2.00
2022-07-31T17:49:20.332Z,2.70
2022-07-31T17:52:07.717Z,2.60
2022-07-31T17:54:34.538Z,2.50
2022-07-31T17:57:01.431Z,1.80
2022-07-31T17:59:28.731Z,1.30
2022-07-31T18:01:56.469Z,1.30
2022-07-31T18:04:23.053Z,1.30
2022-07-31T18:06:54.541Z,1.20
2022-07-31T18:09:22.084Z,1.50
2022-07-31T18:11:52.439Z,1.70
2022-07-31T18:14:19.599Z,1.50
2022-07-31T18:16:47.617Z,1.70
2022-07-31T18:19:14.904Z,2.10
2022-07-31T18:21:42.034Z,1.90
2022-07-31T18:24:09.117Z,2.30
2022-07-31T18:26:36.164Z,2.30
2022-07-31T18:29:03.493Z,1.90
2022-07-31T18:31:34.689Z,2.00
2022-07-31T18:34:06.308Z,2.00
2022-07-31T18:36:33.906Z,1.70
2022-07-31T18:39:01.325Z,1.50
2022-07-31T18:41:28.289Z,1.80
2022-07-31T18:43:56.092Z,2.10
2022-07-31T18:46:23.876Z,2.40
2022-07-31T18:48:55.518Z,2.90
2022-07-31T18:51:23.424Z,2.90
2022-07-31T18:53:50.719Z,2.80
2022-07-31T18:56:17.414Z,2.60
2022-07-31T18:58:44.665Z,2.10
2022-07-31T19:01:11.807Z,2.10
2022-07-31T19:03:38.538Z,1.50
2022-07-31T19:06:05.392Z,1.60
2022-07-31T19:08:32.248Z,1.40
2022-07-31T19:10:58.984Z,1.70
2022-07-31T19:13:25.622Z,2.40
2022-07-31T19:15:52.789Z,1.40
2022-07-31T19:18:28.333Z,1.90
2022-07-31T19:21:22.938Z,1.80
2022-07-31T19:23:46.086Z,1.70
2022-07-31T19:26:12.905Z,1.90
2022-07-31T19:28:40.195Z,1.70
2022-07-31T19:31:07.463Z,1.90
2022-07-31T19:33:34.200Z,2.10
2022-07-31T19:36:02.680Z,2.60
2022-07-31T19:38:31.794Z,2.90
2022-07-31T19:40:59.297Z,2.80
2022-07-31T19:43:26.125Z,3.30
2022-07-31T19:46:10.493Z,3.30
2022-07-31T19:48:41.318Z,3.50
2022-07-31T19:51:09.068Z,4.40
2022-07-31T19:53:35.901Z,3.40
2022-07-31T19:56:02.469Z,3.40
2022-07-31T19:58:29.187Z,3.50
2022-07-31T20:00:55.697Z,3.40
2022-07-31T20:03:22.389Z,3.60
2022-07-31T20:05:49.221Z,4.20
2022-07-31T20:08:15.747Z,3.10
2022-07-31T20:10:42.403Z,3.40
2022-07-31T20:13:09.010Z,3.60
2022-07-31T20:15:51.154Z,3.70
2022-07-31T20:18:27.674Z,4.00
2022-07-31T20:21:05.904Z,3.40
2022-07-31T20:23:33.336Z,3.60
2022-07-31T20:26:00.443Z,3.50
2022-07-31T20:28:27.307Z,2.90
2022-07-31T20:30:54.563Z,3.10
2022-07-31T20:33:21.204Z,2.80
2022-07-31T20:35:50.166Z,3.20
2022-07-31T20:38:24.440Z,3.00
2022-07-31T20:40:55.417Z,2.60
2022-07-31T20:43:29.081Z,3.10
2022-07-31T20:45:57.867Z,3.10
2022-07-31T20:48:26.360Z,3.20
2022-07-31T20:50:53.005Z,3.20
2022-07-31T20:53:19.664Z,3.50
2022-07-31T20:55:46.519Z,3.40
2022-07-31T20:58:13.644Z,3.00
2022-07-31T21:00:40.520Z,3.10
2022-07-31T21:03:07.142Z,3.40
2022-07-31T21:05:33.918Z,3.90
2022-07-31T21:08:00.447Z,3.30
2022-07-31T21:10:29.302Z,4.00
2022-07-31T21:12:57.553Z,3.90
2022-07-31T21:15:41.128Z,3.60
2022-07-31T21:18:20.477Z,3.60
2022-07-31T21:20:49.874Z,3.00
2022-07-31T21:23:24.025Z,2.90
2022-07-31T21:25:58.530Z,3.00
2022-07-31T21:28:28.004Z,3.10
2022-07-31T21:30:55.229Z,3.60
2022-07-31T21:33:23.493Z,3.20
2022-07-31T21:35:50.644Z,2.50
2022-07-31T21:38:18.407Z,2.50
2022-07-31T21:40:45.983Z,3.20
2022-07-31T21:43:16.758Z,2.80
2022-07-31T21:45:56.090Z,2.50
2022-07-31T21:48:26.584Z,2.70
2022-07-31T21:50:54.559Z,2.70
2022-07-31T21:53:22.406Z,2.70
2022-07-31T21:55:49.125Z,2.60
2022-07-31T21:58:16.260Z,2.70
2022-07-31T22:00:44.076Z,2.90
2022-07-31T22:03:10.969Z,2.70
2022-07-31T22:05:37.754Z,2.80
2022-07-31T22:08:04.736Z,2.50
2022-07-31T22:10:31.633Z,2.90
2022-07-31T22:12:59.391Z,2.80
2022-07-31T22:15:25.994Z,2.60
2022-07-31T22:18:12.934Z,2.40
2022-07-31T22:20:39.988Z,2.60
2022-07-31T22:23:07.015Z,2.30
2022-07-31T22:25:34.169Z,2.20
2022-07-31T22:28:04.570Z,2.50
2022-07-31T22:30:31.684Z,2.10
2022-07-31T22:33:00.345Z,2.20
2022-07-31T22:35:28.389Z,2.10
2022-07-31T22:37:55.678Z,2.10
2022-07-31T22:40:23.756Z,2.10
2022-07-31T22:42:57.415Z,2.30
2022-07-31T22:45:25.237Z,2.20
2022-07-31T22:47:52.189Z,2.30
2022-07-31T22:50:19.066Z,2.20
2022-07-31T22:52:45.883Z,2.50
2022-07-31T22:55:12.709Z,2.50
2022-07-31T22:57:40.438Z,2.80
2022-07-31T23:00:08.439Z,2.50
2022-07-31T23:02:35.313Z,3.10
2022-07-31T23:05:01.955Z,2.80
2022-07-31T23:07:28.921Z,3.00
2022-07-31T23:09:55.560Z,3.10
2022-07-31T23:12:22.129Z,4.90
2022-07-31T23:14:54.974Z,6.20
2022-07-31T23:17:23.018Z,9.40
2022-07-31T23:19:54.076Z,10.90
2022-07-31T23:22:30.875Z,11.50
2022-07-31T23:25:05.128Z,14.10
2022-07-31T23:27:32.793Z,15.00
2022-07-31T23:30:00.341Z,15.10
2022-07-31T23:32:28.263Z,15.40
2022-07-31T23:34:54.960Z,15.20
2022-07-31T23:37:21.479Z,15.90
2022-07-31T23:39:48.096Z,16.00
2022-07-31T23:42:14.729Z,16.40
2022-07-31T23:44:41.287Z,17.20
2022-07-31T23:47:15.784Z,17.80
2022-07-31T23:49:42.834Z,17.80
2022-07-31T23:52:09.576Z,18.30
2022-07-31T23:54:36.219Z,16.30
2022-07-31T23:57:02.965Z,16.30
2022-07-31T23:59:29.506Z,15.20
